createdAt,value
2018-08-24T00:00:37.572Z,24.6
2018-08-24T00:01:27.342Z,24.6
2018-08-24T00:02:17.939Z,24.6
2018-08-24T00:03:06.372Z,24.6
2018-08-24T00:03:58.104Z,24.6
2018-08-24T00:04:47.570Z,24.6
2018-08-24T00:05:37.992Z,24.6
2018-08-24T00:06:27.952Z,24.6
2018-08-24T00:07:18.052Z,24.6
2018-08-24T00:08:07.590Z,24.6
2018-08-24T00:08:58.223Z,24.6
2018-08-24T00:09:47.696Z,24.6
2018-08-24T00:10:38.078Z,24.6
2018-08-24T00:11:27.908Z,24.6
2018-08-24T00:12:17.854Z,24.6
2018-08-24T00:31:18.891Z,24.6
2018-08-24T00:32:09.074Z,24.6
2018-08-24T00:32:58.209Z,24.6
2018-08-24T00:33:48.580Z,24.6
2018-08-24T00:34:39.407Z,24.6
2018-08-24T00:35:28.734Z,24.6
2018-08-24T00:36:19.270Z,24.6
2018-08-24T00:37:09.029Z,24.6
2018-08-24T00:37:59.201Z,24.6
2018-08-24T00:38:48.664Z,24.6
2018-08-24T00:39:38.778Z,24.6
2018-08-24T00:40:29.431Z,24.6
2018-08-24T00:41:19.157Z,24.6
2018-08-24T00:42:08.713Z,24.6
2018-08-24T00:42:58.707Z,24.6
2018-08-24T00:43:49.623Z,24.6
2018-08-24T00:44:39.438Z,24.6
2018-08-24T00:45:28.890Z,24.6
2018-08-24T00:46:19.821Z,24.6
2018-08-24T00:47:08.983Z,24.6
2018-08-24T00:47:59.383Z,24.6
2018-08-24T00:48:50.017Z,24.6
2018-08-24T00:49:38.947Z,24.6
2018-08-24T00:50:29.851Z,24.6
2018-08-24T00:51:20.645Z,24.6
2018-08-24T00:52:10.236Z,24.6
2018-08-24T00:52:59.996Z,24.6
2018-08-24T00:53:50.163Z,24.6
2018-08-24T00:54:40.196Z,24.6
2018-08-24T00:55:30.296Z,24.6
2018-08-24T00:56:20.413Z,24.6
2018-08-24T00:57:11.180Z,24.6
2018-08-24T00:58:00.424Z,24.6
2018-08-24T00:58:50.808Z,24.6
2018-08-24T00:59:39.993Z,24.6
2018-08-24T01:00:30.948Z,24.6
2018-08-24T01:01:20.860Z,24.6
2018-08-24T01:02:10.451Z,24.6
2018-08-24T01:03:00.533Z,24.6
2018-08-24T01:03:51.169Z,24.6
2018-08-24T01:04:41.525Z,24.6
2018-08-24T01:05:31.029Z,24.6
2018-08-24T01:06:21.568Z,24.6
2018-08-24T01:07:12.424Z,24.6
2018-08-24T01:08:01.419Z,24.6
2018-08-24T01:08:51.845Z,24.6
2018-08-24T01:09:39.962Z,24.6
2018-08-24T01:10:30.490Z,24.6
2018-08-24T01:11:21.231Z,24.6
2018-08-24T01:12:11.785Z,24.6
2018-08-24T01:13:01.051Z,24.6
2018-08-24T01:13:50.845Z,24.6
2018-08-24T01:14:42.032Z,24.6
2018-08-24T01:15:32.265Z,24.6
2018-08-24T01:16:21.244Z,24.6
2018-08-24T01:17:11.906Z,24.6
2018-08-24T01:18:03.009Z,24.6
2018-08-24T01:18:51.681Z,24.6
2018-08-24T01:19:42.103Z,24.6
2018-08-24T01:20:31.623Z,24.6
2018-08-24T01:21:21.983Z,24.6
2018-08-24T01:22:13.414Z,24.6
2018-08-24T01:23:02.066Z,24.6
2018-08-24T01:23:52.394Z,24.6
2018-08-24T01:24:42.201Z,24.6
2018-08-24T01:25:32.233Z,24.6
2018-08-24T01:26:22.583Z,24.6
2018-08-24T01:27:12.670Z,24.6
2018-08-24T01:28:01.109Z,24.6
2018-08-24T01:28:52.755Z,24.6
2018-08-24T01:29:42.666Z,24.6
2018-08-24T01:30:47.617Z,24.6
2018-08-24T01:31:23.000Z,24.6
2018-08-24T01:32:13.631Z,24.6
2018-08-24T01:33:03.354Z,24.6
2018-08-24T01:33:53.154Z,24.6
2018-08-24T01:34:42.713Z,24.6
2018-08-24T01:35:33.538Z,24.6
2018-08-24T01:36:23.870Z,24.6
2018-08-24T01:37:13.407Z,24.6
2018-08-24T01:38:03.921Z,24.6
2018-08-24T01:38:54.121Z,24.6
2018-08-24T01:39:43.320Z,24.6
2018-08-24T01:40:33.949Z,24.6
2018-08-24T01:41:24.027Z,24.6
2018-08-24T01:42:28.751Z,24.6
2018-08-24T01:43:03.810Z,24.6
2018-08-24T01:43:53.666Z,24.6
2018-08-24T01:44:43.468Z,24.6
2018-08-24T01:45:33.555Z,24.6
2018-08-24T01:46:23.536Z,24.6
2018-08-24T01:47:14.527Z,24.6
2018-08-24T01:48:03.749Z,24.6
2018-08-24T01:48:53.092Z,24.6
2018-08-24T01:49:44.577Z,24.6
2018-08-24T01:50:34.447Z,24.6
2018-08-24T01:51:24.624Z,24.6
2018-08-24T01:52:15.598Z,24.6
2018-08-24T01:53:04.911Z,24.6
2018-08-24T01:53:54.910Z,24.6
2018-08-24T01:54:44.710Z,24.6
2018-08-24T01:55:34.307Z,24.6
2018-08-24T01:56:24.045Z,24.6
2018-08-24T01:57:15.239Z,24.6
2018-08-24T01:58:04.795Z,24.6
2018-08-24T01:58:55.184Z,24.6
2018-08-24T01:59:44.853Z,24.6
2018-08-24T02:00:34.691Z,24.6
2018-08-24T02:01:25.565Z,24.6
2018-08-24T02:02:15.020Z,24.6
2018-08-24T02:03:05.144Z,24.6
2018-08-24T02:03:56.015Z,24.6
2018-08-24T02:04:46.319Z,24.6
2018-08-24T02:05:35.047Z,24.6
2018-08-24T02:06:25.710Z,24.6
2018-08-24T02:07:15.679Z,24.6
2018-08-24T02:08:06.375Z,24.6
2018-08-24T02:08:55.631Z,24.6
2018-08-24T02:10:00.874Z,24.6
2018-08-24T02:10:36.228Z,24.6
2018-08-24T02:11:26.036Z,24.6
2018-08-24T02:12:16.607Z,24.6
2018-08-24T02:13:20.219Z,24.6
2018-08-24T02:13:56.606Z,24.6
2018-08-24T02:14:46.286Z,24.6
2018-08-24T02:15:36.160Z,24.6
2018-08-24T02:16:26.389Z,24.6
2018-08-24T02:17:16.000Z,24.6
2018-08-24T02:18:05.445Z,24.6
2018-08-24T02:18:57.199Z,24.6
2018-08-24T02:19:46.621Z,24.6
2018-08-24T02:20:36.442Z,24.6
2018-08-24T02:21:26.300Z,24.6
2018-08-24T02:22:16.864Z,24.6
2018-08-24T02:23:07.486Z,24.6
2018-08-24T02:23:57.277Z,24.6
2018-08-24T02:24:47.363Z,24.6
2018-08-24T02:25:37.235Z,24.6
2018-08-24T02:26:41.569Z,24.6
2018-08-24T02:27:16.990Z,24.6
2018-08-24T02:28:07.735Z,24.6
2018-08-24T02:28:57.092Z,24.6
2018-08-24T02:29:46.658Z,24.6
2018-08-24T02:30:38.062Z,24.6
2018-08-24T02:31:27.990Z,24.6
2018-08-24T02:32:17.149Z,24.6
2018-08-24T02:33:07.701Z,24.6
2018-08-24T02:33:58.317Z,24.6
2018-08-24T02:34:48.322Z,24.6
2018-08-24T02:35:38.721Z,24.6
2018-08-24T02:36:27.148Z,24.6
2018-08-24T02:37:31.830Z,24.6
2018-08-24T02:38:22.996Z,24.6
2018-08-24T02:38:58.167Z,24.6
2018-08-24T02:39:48.241Z,24.6
2018-08-24T02:40:38.533Z,24.6
2018-08-24T02:41:28.363Z,24.6
2018-08-24T02:42:19.017Z,24.6
2018-08-24T02:43:09.081Z,24.6
2018-08-24T02:43:59.026Z,24.6
2018-08-24T02:44:49.149Z,24.6
2018-08-24T02:45:38.953Z,24.6
2018-08-24T02:46:29.552Z,24.6
2018-08-24T02:47:18.794Z,24.6
2018-08-24T02:48:09.390Z,24.6
2018-08-24T02:48:59.505Z,24.6
2018-08-24T02:49:49.230Z,24.6
2018-08-24T02:50:39.038Z,24.6
2018-08-24T02:51:29.340Z,24.6
2018-08-24T02:52:19.443Z,24.6
2018-08-24T02:53:09.196Z,24.6
2018-08-24T02:53:59.002Z,24.6
2018-08-24T02:54:49.648Z,24.6
2018-08-24T02:55:39.553Z,24.6
2018-08-24T02:56:29.176Z,24.6
2018-08-24T02:57:18.919Z,24.6
2018-08-24T02:58:09.996Z,24.6
2018-08-24T02:58:59.261Z,24.6
2018-08-24T02:59:48.936Z,24.6
2018-08-24T03:00:54.217Z,24.6
2018-08-24T03:01:29.844Z,24.6
2018-08-24T03:02:20.521Z,24.6
2018-08-24T03:03:08.721Z,24.6
2018-08-24T03:03:59.832Z,24.6
2018-08-24T03:04:50.407Z,24.6
2018-08-24T03:05:44.064Z,24.6
2018-08-24T03:06:30.193Z,24.6
2018-08-24T03:07:20.607Z,24.6
2018-08-24T03:08:11.897Z,24.6
2018-08-24T03:09:00.175Z,24.6
2018-08-24T03:09:51.744Z,24.6
2018-08-24T03:10:40.136Z,24.6
2018-08-24T03:11:31.494Z,24.6
2018-08-24T03:12:20.669Z,24.6
2018-08-24T03:13:10.819Z,24.6
2018-08-24T03:14:00.576Z,24.6
2018-08-24T03:14:50.959Z,24.6
2018-08-24T03:15:41.470Z,24.6
2018-08-24T03:16:32.756Z,24.6
2018-08-24T03:17:21.449Z,24.6
2018-08-24T03:18:10.594Z,24.6
2018-08-24T03:19:01.039Z,24.6
2018-08-24T03:19:51.094Z,24.6
2018-08-24T03:20:41.431Z,24.6
2018-08-24T03:21:31.441Z,24.6
2018-08-24T03:22:22.065Z,24.6
2018-08-24T03:23:11.276Z,24.6
2018-08-24T03:24:01.872Z,24.6
2018-08-24T03:24:50.624Z,24.6
2018-08-24T03:25:42.168Z,24.6
2018-08-24T03:26:31.641Z,24.6
2018-08-24T03:27:22.188Z,24.6
2018-08-24T03:28:12.483Z,24.6
2018-08-24T03:29:01.687Z,24.6
2018-08-24T03:29:52.545Z,24.6
2018-08-24T03:30:42.725Z,24.6
2018-08-24T03:31:32.539Z,24.6
2018-08-24T03:32:23.195Z,24.6
2018-08-24T03:33:12.767Z,24.6
2018-08-24T03:34:02.056Z,24.6
2018-08-24T03:34:52.963Z,24.6
2018-08-24T03:35:43.137Z,24.6
2018-08-24T03:36:33.153Z,24.6
2018-08-24T03:37:22.118Z,24.6
2018-08-24T03:38:12.522Z,24.6
2018-08-24T03:39:02.014Z,24.6
2018-08-24T03:39:53.598Z,24.6
2018-08-24T03:40:43.184Z,24.6
2018-08-24T03:41:33.536Z,24.6
2018-08-24T03:42:23.543Z,24.6
2018-08-24T03:43:13.683Z,24.6
2018-08-24T03:44:03.509Z,24.6
2018-08-24T03:44:52.971Z,24.6
2018-08-24T03:45:43.041Z,24.6
2018-08-24T03:46:32.859Z,24.6
2018-08-24T03:47:23.178Z,24.6
2018-08-24T03:48:12.852Z,24.6
2018-08-24T03:49:02.621Z,24.6
2018-08-24T03:49:53.687Z,24.6
2018-08-24T03:50:58.561Z,24.6
2018-08-24T03:51:34.101Z,24.6
2018-08-24T03:52:39.075Z,24.6
2018-08-24T03:53:14.708Z,24.6
2018-08-24T03:54:03.657Z,24.6
2018-08-24T03:54:52.846Z,24.6
2018-08-24T03:55:44.604Z,24.6
2018-08-24T03:56:35.064Z,24.6
2018-08-24T03:57:24.697Z,24.6
2018-08-24T03:58:14.249Z,24.6
2018-08-24T03:59:04.804Z,24.6
2018-08-24T03:59:54.667Z,24.6
2018-08-24T04:00:44.142Z,24.6
2018-08-24T04:01:35.142Z,24.6
2018-08-24T04:02:24.132Z,24.6
2018-08-24T04:03:14.636Z,24.6
2018-08-24T04:04:05.167Z,24.6
2018-08-24T04:04:54.482Z,24.6
2018-08-24T04:05:44.774Z,24.6
2018-08-24T04:06:35.474Z,24.6
2018-08-24T04:07:25.496Z,24.6
2018-08-24T04:08:14.972Z,24.6
2018-08-24T04:09:05.132Z,24.6
2018-08-24T04:09:55.082Z,24.6
2018-08-24T04:10:45.790Z,24.6
2018-08-24T04:11:35.814Z,24.6
2018-08-24T04:12:25.293Z,24.6
2018-08-24T04:13:15.649Z,24.6
2018-08-24T04:14:06.431Z,24.6
2018-08-24T04:14:55.788Z,24.6
2018-08-24T04:15:45.593Z,24.6
2018-08-24T04:16:35.382Z,24.6
2018-08-24T04:17:26.430Z,24.6
2018-08-24T04:18:15.478Z,24.6
2018-08-24T04:19:05.786Z,24.6
2018-08-24T04:19:55.957Z,24.6
2018-08-24T04:20:46.150Z,24.6
2018-08-24T04:21:35.842Z,24.6
2018-08-24T04:22:26.406Z,24.6
2018-08-24T04:23:16.212Z,24.6
2018-08-24T04:24:05.656Z,24.6
2018-08-24T04:24:56.861Z,24.6
2018-08-24T04:25:47.748Z,24.6
2018-08-24T04:26:36.496Z,24.6
2018-08-24T04:27:26.938Z,24.6
2018-08-24T04:28:16.562Z,24.6
2018-08-24T04:29:06.620Z,24.6
2018-08-24T04:29:56.663Z,24.6
2018-08-24T04:30:47.032Z,24.6
2018-08-24T04:31:37.418Z,24.6
2018-08-24T04:32:27.745Z,24.6
2018-08-24T04:33:17.465Z,24.6
2018-08-24T04:34:06.668Z,24.6
2018-08-24T04:34:58.707Z,24.6
2018-08-24T04:35:47.147Z,24.6
2018-08-24T04:36:37.405Z,24.6
2018-08-24T04:37:27.292Z,24.6
2018-08-24T04:38:17.572Z,24.6
2018-08-24T04:39:07.131Z,24.6
2018-08-24T04:39:57.144Z,24.6
2018-08-24T04:40:47.024Z,24.6
2018-08-24T04:41:37.595Z,24.6
2018-08-24T04:42:28.228Z,24.6
2018-08-24T05:00:29.179Z,24.4
2018-08-24T05:01:19.731Z,24.4
2018-08-24T05:02:10.123Z,24.4
2018-08-24T05:02:59.856Z,24.4
2018-08-24T05:03:50.200Z,24.4
2018-08-24T05:04:40.230Z,24.4
2018-08-24T05:05:31.018Z,24.4
2018-08-24T05:06:20.191Z,24.4
2018-08-24T05:07:10.206Z,24.4
2018-08-24T05:08:00.282Z,24.4
2018-08-24T05:08:49.778Z,24.4
2018-08-24T05:09:40.728Z,24.4
2018-08-24T05:10:30.761Z,24.4
2018-08-24T05:11:20.215Z,24.4
2018-08-24T05:12:09.445Z,24.4
2018-08-24T05:13:00.635Z,24.4
2018-08-24T05:13:51.232Z,24.4
2018-08-24T05:14:40.786Z,24.4
2018-08-24T05:15:31.742Z,24.4
2018-08-24T05:16:21.192Z,24.4
2018-08-24T05:17:11.008Z,24.4
2018-08-24T05:17:59.585Z,24.4
2018-08-24T05:18:51.054Z,24.4
2018-08-24T05:19:41.405Z,24.4
2018-08-24T05:20:32.227Z,24.4
2018-08-24T05:21:21.415Z,24.4
2018-08-24T05:22:10.189Z,24.4
2018-08-24T05:23:01.121Z,24.4
2018-08-24T05:23:51.537Z,24.4
2018-08-24T05:24:41.512Z,24.4
2018-08-24T05:25:31.357Z,24.4
2018-08-24T05:26:21.081Z,24.4
2018-08-24T05:27:11.690Z,24.4
2018-08-24T05:28:01.653Z,24.4
2018-08-24T05:28:51.878Z,24.4
2018-08-24T05:29:41.852Z,24.4
2018-08-24T05:30:32.180Z,24.4
2018-08-24T05:31:22.280Z,24.3
2018-08-24T05:32:12.129Z,24.3
2018-08-24T05:33:02.102Z,24.3
2018-08-24T05:33:51.332Z,24.3
2018-08-24T05:34:42.031Z,24.3
2018-08-24T05:35:33.048Z,24.3
2018-08-24T05:36:22.431Z,24.3
2018-08-24T05:37:11.639Z,24.3
2018-08-24T05:38:02.044Z,24.3
2018-08-24T05:38:51.779Z,24.3
2018-08-24T05:39:41.497Z,24.3
2018-08-24T05:40:32.378Z,24.3
2018-08-24T05:41:24.031Z,24.2
2018-08-24T05:42:12.588Z,24.2
2018-08-24T05:43:03.218Z,24.2
2018-08-24T05:43:53.222Z,24.2
2018-08-24T05:44:43.367Z,24.2
2018-08-24T05:45:33.321Z,24.2
2018-08-24T05:46:22.654Z,24.2
2018-08-24T05:47:13.028Z,24.3
2018-08-24T05:48:03.018Z,24.3
2018-08-24T05:48:54.507Z,24.3
2018-08-24T05:49:43.742Z,24.3
2018-08-24T05:50:33.702Z,24.3
2018-08-24T05:51:23.334Z,24.3
2018-08-24T05:52:13.889Z,24.3
2018-08-24T05:53:03.091Z,24.3
2018-08-24T05:53:53.426Z,24.3
2018-08-24T05:54:44.346Z,24.3
2018-08-24T05:55:34.007Z,24.3
2018-08-24T05:56:24.759Z,24.3
2018-08-24T05:57:14.823Z,24.3
2018-08-24T05:58:03.489Z,24.3
2018-08-24T05:58:54.750Z,24.4
2018-08-24T05:59:42.743Z,24.4
2018-08-24T06:00:35.112Z,24.3
2018-08-24T06:01:23.457Z,24.4
2018-08-24T06:02:14.663Z,24.3
2018-08-24T06:03:04.792Z,24.4
2018-08-24T06:03:54.751Z,24.3
2018-08-24T06:04:45.159Z,24.4
2018-08-24T06:05:34.575Z,24.3
2018-08-24T06:06:24.979Z,24.3
2018-08-24T06:07:15.566Z,24.4
2018-08-24T06:08:04.811Z,24.4
2018-08-24T06:08:54.888Z,24.4
2018-08-24T06:09:44.986Z,24.4
2018-08-24T06:10:35.344Z,24.4
2018-08-24T06:11:25.312Z,24.4
2018-08-24T06:12:15.406Z,24.4
2018-08-24T06:13:05.464Z,24.4
2018-08-24T06:13:55.260Z,24.4
2018-08-24T06:14:45.993Z,24.4
2018-08-24T06:15:35.132Z,24.4
2018-08-24T06:16:25.470Z,24.4
2018-08-24T06:17:15.823Z,24.4
2018-08-24T06:18:05.565Z,24.4
2018-08-24T06:18:55.990Z,24.4
2018-08-24T06:19:45.466Z,24.4
2018-08-24T06:20:35.877Z,24.4
2018-08-24T06:21:25.635Z,24.4
2018-08-24T06:22:15.657Z,24.4
2018-08-24T06:23:06.588Z,24.4
2018-08-24T06:23:54.948Z,24.4
2018-08-24T06:24:45.462Z,24.4
2018-08-24T06:25:35.905Z,24.4
2018-08-24T06:26:26.527Z,24.4
2018-08-24T06:27:16.374Z,24.4
2018-08-24T06:28:04.907Z,24.4
2018-08-24T06:28:55.603Z,24.4
2018-08-24T06:29:46.535Z,24.4
2018-08-24T06:30:36.570Z,24.4
2018-08-24T06:31:26.324Z,24.4
2018-08-24T06:32:17.192Z,24.4
2018-08-24T06:33:07.891Z,24.4
2018-08-24T06:33:57.171Z,24.4
2018-08-24T06:34:47.485Z,24.4
2018-08-24T06:35:36.066Z,24.4
2018-08-24T06:36:27.582Z,24.4
2018-08-24T06:37:17.078Z,24.4
2018-08-24T06:38:07.671Z,24.4
2018-08-24T06:38:57.766Z,24.4
2018-08-24T06:39:46.937Z,24.4
2018-08-24T06:40:37.643Z,24.4
2018-08-24T06:41:27.355Z,24.4
2018-08-24T06:42:17.438Z,24.4
2018-08-24T06:43:08.112Z,24.4
2018-08-24T06:43:57.136Z,24.4
2018-08-24T06:44:47.897Z,24.4
2018-08-24T06:45:37.722Z,24.4
2018-08-24T06:46:27.804Z,24.4
2018-08-24T06:47:19.158Z,24.4
2018-08-24T06:48:07.069Z,24.4
2018-08-24T06:48:56.581Z,24.5
2018-08-24T06:49:48.627Z,24.4
2018-08-24T06:50:37.772Z,24.4
2018-08-24T06:51:28.112Z,24.4
2018-08-24T06:52:18.232Z,24.4
2018-08-24T06:53:09.361Z,24.4
2018-08-24T06:54:00.769Z,24.4
2018-08-24T06:54:47.826Z,24.4
2018-08-24T06:55:38.486Z,24.5
2018-08-24T06:56:28.654Z,24.4
2018-08-24T06:57:18.902Z,24.4
2018-08-24T06:58:08.712Z,24.5
2018-08-24T06:58:59.531Z,24.4
2018-08-24T06:59:50.480Z,24.5
2018-08-24T07:00:38.006Z,24.5
2018-08-24T07:01:29.240Z,24.5
2018-08-24T07:02:19.017Z,24.5
2018-08-24T07:03:09.672Z,24.5
2018-08-24T07:03:59.659Z,24.5
2018-08-24T07:04:49.187Z,24.4
2018-08-24T07:05:40.081Z,24.5
2018-08-24T07:06:29.364Z,24.5
2018-08-24T07:07:19.115Z,24.5
2018-08-24T07:08:09.279Z,24.5
2018-08-24T07:09:00.316Z,24.5
2018-08-24T07:09:49.291Z,24.5
2018-08-24T07:10:39.996Z,24.5
2018-08-24T07:11:30.563Z,24.5
2018-08-24T07:12:20.387Z,24.5
2018-08-24T07:13:11.295Z,24.5
2018-08-24T07:14:00.191Z,24.5
2018-08-24T07:14:50.755Z,24.5
2018-08-24T07:15:39.491Z,24.5
2018-08-24T07:16:30.102Z,24.5
2018-08-24T07:17:20.762Z,24.5
2018-08-24T07:18:10.512Z,24.5
2018-08-24T07:19:00.350Z,24.5
2018-08-24T07:19:50.331Z,24.5
2018-08-24T07:20:40.397Z,24.5
2018-08-24T07:21:29.394Z,24.5
2018-08-24T07:22:19.655Z,24.5
2018-08-24T07:23:09.874Z,24.5
2018-08-24T07:24:01.693Z,24.5
2018-08-24T07:24:50.952Z,24.6
2018-08-24T07:25:40.480Z,24.5
2018-08-24T07:26:30.578Z,24.5
2018-08-24T07:27:20.589Z,24.5
2018-08-24T07:28:11.519Z,24.6
2018-08-24T07:29:01.819Z,24.6
2018-08-24T07:29:51.142Z,24.6
2018-08-24T07:30:41.419Z,24.6
2018-08-24T07:31:31.535Z,24.6
2018-08-24T07:32:21.319Z,24.5
2018-08-24T07:33:11.148Z,24.6
2018-08-24T07:34:01.366Z,24.6
2018-08-24T07:34:52.005Z,24.6
2018-08-24T07:35:41.593Z,24.6
2018-08-24T07:36:31.069Z,24.6
2018-08-24T07:37:21.741Z,24.6
2018-08-24T07:38:11.498Z,24.6
2018-08-24T07:39:02.115Z,24.6
2018-08-24T07:39:52.671Z,24.6
2018-08-24T07:40:42.519Z,24.6
2018-08-24T07:41:33.242Z,24.6
2018-08-24T07:42:21.815Z,24.6
2018-08-24T07:43:12.142Z,24.6
2018-08-24T07:44:01.935Z,24.6
2018-08-24T07:44:52.262Z,24.6
2018-08-24T07:45:42.407Z,24.6
2018-08-24T07:46:31.918Z,24.6
2018-08-24T07:47:21.925Z,24.6
2018-08-24T07:48:12.307Z,24.6
2018-08-24T07:49:03.254Z,24.6
2018-08-24T07:49:52.850Z,24.6
2018-08-24T07:50:43.349Z,24.6
2018-08-24T07:51:32.772Z,24.6
2018-08-24T07:52:23.127Z,24.6
2018-08-24T07:53:13.220Z,24.6
2018-08-24T07:54:03.565Z,24.6
2018-08-24T07:54:53.249Z,24.6
2018-08-24T07:55:43.457Z,24.6
2018-08-24T07:56:33.418Z,24.6
2018-08-24T07:57:23.300Z,24.6
2018-08-24T07:58:13.832Z,24.6
2018-08-24T07:59:03.622Z,24.6
2018-08-24T07:59:54.499Z,24.6
2018-08-24T08:00:43.105Z,24.6
2018-08-24T08:01:34.157Z,24.6
2018-08-24T08:02:24.193Z,24.6
2018-08-24T08:03:13.698Z,24.6
2018-08-24T08:04:04.043Z,24.6
2018-08-24T08:04:54.638Z,24.6
2018-08-24T08:05:44.347Z,24.6
2018-08-24T08:06:34.050Z,24.6
2018-08-24T08:07:24.016Z,24.6
2018-08-24T08:08:13.805Z,24.6
2018-08-24T08:09:03.305Z,24.6
2018-08-24T08:09:54.825Z,24.6
2018-08-24T08:10:43.758Z,24.6
2018-08-24T08:11:34.040Z,24.6
2018-08-24T08:12:24.291Z,24.6
2018-08-24T08:13:14.733Z,24.6
2018-08-24T08:14:05.113Z,24.6
2018-08-24T08:14:54.613Z,24.6
2018-08-24T08:15:44.699Z,24.6
2018-08-24T08:16:35.033Z,24.6
2018-08-24T08:17:24.869Z,24.6
2018-08-24T08:18:16.499Z,24.6
2018-08-24T08:19:04.352Z,24.6
2018-08-24T08:19:55.393Z,24.6
2018-08-24T08:20:45.042Z,24.6
2018-08-24T08:21:34.521Z,24.6
2018-08-24T08:22:24.952Z,24.6
2018-08-24T08:23:15.887Z,24.6
2018-08-24T08:24:04.734Z,24.6
2018-08-24T08:24:57.063Z,24.6
2018-08-24T08:25:45.452Z,24.6
2018-08-24T08:26:36.072Z,24.6
2018-08-24T08:27:25.889Z,24.6
2018-08-24T08:28:16.226Z,24.6
2018-08-24T08:29:05.932Z,24.6
2018-08-24T08:29:55.753Z,24.6
2018-08-24T08:30:45.369Z,24.6
2018-08-24T08:31:35.356Z,24.6
2018-08-24T08:32:26.529Z,24.6
2018-08-24T08:33:16.289Z,24.6
2018-08-24T08:34:06.652Z,24.6
2018-08-24T08:34:56.745Z,24.6
2018-08-24T08:35:47.008Z,24.6
2018-08-24T08:36:36.789Z,24.6
2018-08-24T08:37:26.893Z,24.6
2018-08-24T08:38:16.448Z,24.6
2018-08-24T08:39:06.768Z,24.7
2018-08-24T08:39:56.576Z,24.6
2018-08-24T08:40:46.635Z,24.6
2018-08-24T08:41:36.656Z,24.6
2018-08-24T08:42:27.011Z,24.7
2018-08-24T08:43:16.846Z,24.6
2018-08-24T08:44:06.566Z,24.6
2018-08-24T08:44:56.716Z,24.7
2018-08-24T08:45:47.014Z,24.7
2018-08-24T08:46:37.402Z,24.7
2018-08-24T08:47:27.686Z,24.7
2018-08-24T08:48:17.173Z,24.6
2018-08-24T08:49:07.838Z,24.6
2018-08-24T08:49:57.346Z,24.6
2018-08-24T08:50:48.266Z,24.6
2018-08-24T08:51:37.741Z,24.7
2018-08-24T08:52:26.749Z,24.6
2018-08-24T08:53:17.754Z,24.7
2018-08-24T08:54:07.720Z,24.6
2018-08-24T08:54:57.574Z,24.7
2018-08-24T08:55:46.782Z,24.7
2018-08-24T08:56:37.371Z,24.7
2018-08-24T08:57:27.732Z,24.7
2018-08-24T08:58:18.532Z,24.7
2018-08-24T09:15:00.381Z,24.7
2018-08-24T09:15:49.702Z,24.7
2018-08-24T09:16:39.166Z,24.7
2018-08-24T09:17:28.956Z,24.7
2018-08-24T09:18:19.140Z,24.7
2018-08-24T09:19:09.409Z,24.7
2018-08-24T09:20:00.156Z,24.7
2018-08-24T09:20:49.483Z,24.7
2018-08-24T09:21:39.823Z,24.7
2018-08-24T09:22:29.912Z,24.8
2018-08-24T09:23:18.521Z,24.7
2018-08-24T09:24:09.776Z,24.7
2018-08-24T09:24:59.483Z,24.7
2018-08-24T09:25:51.526Z,24.7
2018-08-24T09:26:40.221Z,24.7
2018-08-24T09:27:29.872Z,24.7
2018-08-24T09:28:20.391Z,24.8
2018-08-24T09:29:10.733Z,24.7
2018-08-24T09:29:59.434Z,24.7
2018-08-24T09:30:50.263Z,24.7
2018-08-24T09:31:40.353Z,24.7
2018-08-24T09:32:33.236Z,24.7
2018-08-24T09:33:20.256Z,24.8
2018-08-24T09:34:09.476Z,24.7
2018-08-24T09:35:00.791Z,24.8
2018-08-24T09:35:49.118Z,24.7
2018-08-24T09:36:40.472Z,24.8
2018-08-24T09:37:30.556Z,24.8
2018-08-24T09:38:20.928Z,24.8
2018-08-24T09:39:10.394Z,24.8
2018-08-24T09:40:00.342Z,24.8
2018-08-24T09:40:50.813Z,24.8
2018-08-24T09:41:41.344Z,24.8
2018-08-24T09:42:31.200Z,24.8
2018-08-24T09:43:21.291Z,24.8
2018-08-24T09:44:12.109Z,24.8
2018-08-24T09:45:01.496Z,24.8
2018-08-24T09:45:51.458Z,24.7
2018-08-24T09:46:40.584Z,24.8
2018-08-24T09:47:30.327Z,24.8
2018-08-24T09:48:21.961Z,24.8
2018-08-24T09:49:14.900Z,24.8
2018-08-24T09:50:01.557Z,24.8
2018-08-24T09:50:51.723Z,24.8
2018-08-24T09:51:42.435Z,24.8
2018-08-24T09:52:32.929Z,24.8
2018-08-24T09:53:22.122Z,24.8
2018-08-24T09:54:11.791Z,24.8
2018-08-24T09:55:01.659Z,24.8
2018-08-24T09:55:52.519Z,24.8
2018-08-24T09:56:42.195Z,24.8
2018-08-24T09:57:32.365Z,24.8
2018-08-24T09:58:22.940Z,24.8
2018-08-24T09:59:13.001Z,24.8
2018-08-24T10:00:03.095Z,24.8
2018-08-24T10:00:52.726Z,24.8
2018-08-24T10:01:43.015Z,24.8
2018-08-24T10:02:33.061Z,24.8
2018-08-24T10:03:22.530Z,24.8
2018-08-24T10:04:13.415Z,24.8
2018-08-24T10:05:02.901Z,24.8
2018-08-24T10:05:52.984Z,24.8
2018-08-24T10:06:44.319Z,24.8
2018-08-24T10:07:33.486Z,24.8
2018-08-24T10:08:23.243Z,24.8
2018-08-24T10:09:12.746Z,24.8
2018-08-24T10:10:04.135Z,24.8
2018-08-24T10:10:53.631Z,24.8
2018-08-24T10:11:43.827Z,24.8
2018-08-24T10:12:34.488Z,24.8
2018-08-24T10:13:25.275Z,24.8
2018-08-24T10:14:13.437Z,24.8
2018-08-24T10:15:02.995Z,24.8
2018-08-24T10:15:54.319Z,24.8
2018-08-24T10:16:44.417Z,24.8
2018-08-24T10:17:33.910Z,24.8
2018-08-24T10:18:23.956Z,24.8
2018-08-24T10:19:14.562Z,24.8
2018-08-24T10:20:04.462Z,24.8
2018-08-24T10:20:54.525Z,24.8
2018-08-24T10:21:44.281Z,24.8
2018-08-24T10:22:34.013Z,24.8
2018-08-24T10:23:24.891Z,24.8
2018-08-24T10:24:14.699Z,24.8
2018-08-24T10:25:05.271Z,24.8
2018-08-24T10:25:55.372Z,24.8
2018-08-24T10:26:44.969Z,24.8
2018-08-24T10:27:35.056Z,24.8
2018-08-24T10:28:25.611Z,24.8
2018-08-24T10:29:16.485Z,24.8
2018-08-24T10:30:05.445Z,24.8
2018-08-24T10:30:54.732Z,24.8
2018-08-24T10:31:44.558Z,24.8
2018-08-24T10:32:34.903Z,24.8
2018-08-24T10:33:25.720Z,24.8
2018-08-24T10:34:15.585Z,24.8
2018-08-24T10:35:05.663Z,24.8
2018-08-24T10:35:55.096Z,24.8
2018-08-24T10:36:46.201Z,24.8
2018-08-24T10:37:35.538Z,24.8
2018-08-24T10:38:25.868Z,24.8
2018-08-24T10:39:17.010Z,24.8
2018-08-24T10:40:05.737Z,24.8
2018-08-24T10:40:55.899Z,24.8
2018-08-24T10:41:46.357Z,24.8
2018-08-24T10:42:35.850Z,24.8
2018-08-24T10:43:25.184Z,24.8
2018-08-24T10:44:16.059Z,24.8
2018-08-24T10:45:06.166Z,24.8
2018-08-24T10:45:56.763Z,24.8
2018-08-24T10:46:45.911Z,24.8
2018-08-24T10:47:35.850Z,24.8
2018-08-24T10:48:26.694Z,24.8
2018-08-24T10:49:16.572Z,24.8
2018-08-24T10:50:06.781Z,24.8
2018-08-24T10:50:56.854Z,24.8
2018-08-24T10:51:46.053Z,24.8
2018-08-24T10:52:36.659Z,24.8
2018-08-24T10:53:27.062Z,24.8
2018-08-24T10:54:17.059Z,24.8
2018-08-24T10:55:08.498Z,24.8
2018-08-24T10:55:58.550Z,24.8
2018-08-24T10:56:46.463Z,24.8
2018-08-24T10:57:36.623Z,24.8
2018-08-24T10:58:26.752Z,24.8
2018-08-24T10:59:17.772Z,24.8
2018-08-24T11:00:07.576Z,24.8
2018-08-24T11:00:57.052Z,24.8
2018-08-24T11:01:47.476Z,24.8
2018-08-24T11:02:37.733Z,24.8
2018-08-24T11:03:27.531Z,24.8
2018-08-24T11:04:17.331Z,24.8
2018-08-24T11:05:06.849Z,24.8
2018-08-24T11:05:57.292Z,24.8
2018-08-24T11:06:48.350Z,24.8
2018-08-24T11:07:39.249Z,24.8
2018-08-24T11:08:28.066Z,24.8
2018-08-24T11:09:18.524Z,24.8
2018-08-24T11:10:08.060Z,24.8
2018-08-24T11:10:57.866Z,24.8
2018-08-24T11:11:48.293Z,24.8
2018-08-24T11:12:37.721Z,24.8
2018-08-24T11:13:28.070Z,24.8
2018-08-24T11:14:17.861Z,24.8
2018-08-24T11:15:09.054Z,24.8
2018-08-24T11:15:58.564Z,24.8
2018-08-24T11:16:50.077Z,24.8
2018-08-24T11:17:38.948Z,24.8
2018-08-24T11:18:29.543Z,24.8
2018-08-24T11:19:19.228Z,24.8
2018-08-24T11:20:08.863Z,24.8
2018-08-24T11:20:59.508Z,24.8
2018-08-24T11:21:49.671Z,24.8
2018-08-24T11:22:39.385Z,24.8
2018-08-24T11:23:29.862Z,24.8
2018-08-24T11:24:19.573Z,24.8
2018-08-24T11:25:09.785Z,24.8
2018-08-24T11:25:59.039Z,24.8
2018-08-24T11:26:49.368Z,24.8
2018-08-24T11:27:39.673Z,24.8
2018-08-24T11:28:30.187Z,24.8
2018-08-24T11:29:20.507Z,24.8
2018-08-24T11:30:09.392Z,24.8
2018-08-24T11:30:58.815Z,24.8
2018-08-24T11:31:49.464Z,24.8
2018-08-24T11:32:39.488Z,24.8
2018-08-24T11:33:29.754Z,24.8
2018-08-24T11:34:20.566Z,24.9
2018-08-24T11:35:10.592Z,24.8
2018-08-24T11:36:02.324Z,24.8
2018-08-24T11:36:50.372Z,24.8
2018-08-24T11:37:39.873Z,24.8
2018-08-24T11:38:30.055Z,24.8
2018-08-24T11:39:20.964Z,24.9
2018-08-24T11:40:10.654Z,24.8
2018-08-24T11:40:59.664Z,24.8
2018-08-24T11:41:52.283Z,24.8
2018-08-24T11:42:41.171Z,24.8
2018-08-24T11:43:30.349Z,24.8
2018-08-24T11:44:21.292Z,24.8
2018-08-24T11:45:10.839Z,24.8
2018-08-24T11:46:00.865Z,24.8
2018-08-24T11:46:51.218Z,24.8
2018-08-24T11:47:40.811Z,24.8
2018-08-24T11:48:31.584Z,24.8
2018-08-24T11:49:20.626Z,24.8
2018-08-24T11:50:11.184Z,24.9
2018-08-24T11:51:00.973Z,24.9
2018-08-24T11:51:51.890Z,24.8
2018-08-24T11:52:41.380Z,24.8
2018-08-24T11:53:32.538Z,24.8
2018-08-24T11:54:23.124Z,24.8
2018-08-24T11:55:11.958Z,24.9
2018-08-24T11:56:02.214Z,24.8
2018-08-24T11:56:51.551Z,24.8
2018-08-24T11:57:41.803Z,24.9